Terminal Aerodrome Forecast
Issued by NWS Tuscon, AZ

Home | Current Version | Previous Version | Text Only | Print | Product List | Glossary On
Versions: 1 2 3 4 5 6 7 8 9 10 11 12 13
000
FTUS45 KTWC 301738
TAFTUS
TAF
KTUS 301738Z 3018/3118 12014G22KT P6SM FEW100
     FM302000 09014KT P6SM SCT090
     FM310200 14009KT P6SM FEW120
     FM310700 14013KT P6SM SCT120 SCT250=

USA.gov is the U.S. government's official web portal to all federal, state and local government web resources and services.